Time;durP1;ratioP1;P1;durP2;ratioP2;P2;SDS_P1;SDS_P2;PMS_P1;PMS_P2;Temp;Humidity;BMP_temperature;BMP_pressure;BME280_temperature;BME280_humidity;BME280_pressure;Samples;Min_cycle;Max_cycle;Signal;HPM_P1;HPM_P2
2021/09/15 00:01:34;;;;;;;6.15;5.53;;;;;;;22.35;56.45;101135.03;4723978;30;20435;-90
2021/09/15 00:03:59;;;;;;;7.68;5.22;;;;;;;22.36;56.32;101132.38;4739030;30;20115;-90
2021/09/15 00:06:25;;;;;;;6.05;5.45;;;;;;;22.34;56.55;101134.16;4739016;30;20493;-90
2021/09/15 00:08:50;;;;;;;6.35;5.72;;;;;;;22.35;56.38;101132.41;4723287;30;20484;-91
2021/09/15 00:11:17;;;;;;;6.47;5.32;;;;;;;22.35;56.35;101124.53;4735000;30;20049;-91
2021/09/15 00:13:43;;;;;;;6.25;5.65;;;;;;;22.34;56.41;101117.56;4720185;30;20036;-91
2021/09/15 00:16:09;;;;;;;6.05;5.53;;;;;;;22.35;56.21;101128.00;4708868;30;20044;-91
2021/09/15 00:18:34;;;;;;;5.78;5.25;;;;;;;22.35;56.15;101132.41;4731455;30;20412;-90
2021/09/15 00:21:00;;;;;;;6.28;5.68;;;;;;;22.33;56.27;101129.81;4736704;30;20075;-91
2021/09/15 00:23:25;;;;;;;6.38;5.78;;;;;;;22.32;56.32;101122.84;4722018;30;20040;-90
2021/09/15 00:25:50;;;;;;;6.22;5.63;;;;;;;22.34;56.47;101128.03;4736010;30;20036;-90
2021/09/15 00:28:16;;;;;;;6.13;5.63;;;;;;;22.35;56.42;101116.66;4736483;30;20127;-90
2021/09/15 00:30:41;;;;;;;5.40;4.90;;;;;;;22.34;56.56;101113.19;4703853;30;20098;-90
2021/09/15 00:33:07;;;;;;;5.65;5.15;;;;;;;22.34;56.42;101114.94;4737804;30;20060;-91
2021/09/15 00:35:32;;;;;;;6.07;5.47;;;;;;;22.34;56.38;101109.69;4730859;30;20054;-90
2021/09/15 00:37:58;;;;;;;6.22;5.72;;;;;;;22.34;56.57;101113.19;4704236;30;20032;-91
2021/09/15 00:40:23;;;;;;;6.10;5.60;;;;;;;22.34;56.20;101117.56;4703712;30;20119;-91
2021/09/15 00:42:48;;;;;;;5.57;5.07;;;;;;;22.34;56.36;101118.44;4701081;30;20083;-90
2021/09/15 00:45:14;;;;;;;5.72;5.22;;;;;;;22.34;56.19;101115.81;4693122;30;20120;-90
2021/09/15 00:47:40;;;;;;;5.90;5.40;;;;;;;22.34;56.64;101120.16;4708428;30;20045;-90
2021/09/15 00:50:07;;;;;;;5.65;5.10;;;;;;;22.34;56.32;101117.56;4725146;30;20040;-91
2021/09/15 00:52:32;;;;;;;5.80;5.30;;;;;;;22.34;56.60;101126.31;4707019;30;20029;-90
2021/09/15 00:54:58;;;;;;;6.28;5.68;;;;;;;22.34;56.63;101120.16;4707020;30;20043;-90
2021/09/15 00:57:23;;;;;;;5.90;5.30;;;;;;;22.34;56.42;101126.31;4721226;30;20032;-91
2021/09/15 00:59:49;;;;;;;5.30;4.80;;;;;;;22.33;56.43;101121.94;4721802;30;20121;-91
2021/09/15 01:02:14;;;;;;;5.65;5.15;;;;;;;22.33;56.42;101114.06;4721317;30;20051;-89
2021/09/15 01:04:40;;;;;;;6.07;5.53;;;;;;;22.33;56.76;101111.44;4707492;30;20043;-91
2021/09/15 01:07:06;;;;;;;6.07;4.78;;;;;;;22.31;56.56;101115.88;4706715;30;20036;-90
2021/09/15 01:09:35;;;;;;;5.72;5.22;;;;;;;22.33;56.51;101116.69;4718039;30;20037;-91
2021/09/15 01:12:01;;;;;;;6.00;5.50;;;;;;;22.32;56.73;101107.13;4721167;30;20032;-90
2021/09/15 01:14:27;;;;;;;5.68;5.07;;;;;;;22.33;56.76;101108.84;4706967;30;20115;-90
2021/09/15 01:16:58;;;;;;;5.68;5.15;;;;;;;22.33;56.79;101105.34;4706005;30;20098;-90
2021/09/15 01:19:25;;;;;;;5.80;5.20;;;;;;;22.32;56.66;101103.63;4720846;30;20036;-90
2021/09/15 01:21:52;;;;;;;5.60;5.10;;;;;;;22.32;56.53;101106.25;4706662;30;20050;-90
2021/09/15 01:24:19;;;;;;;5.97;5.47;;;;;;;22.33;56.61;101114.06;4721046;30;20028;-90
2021/09/15 01:26:45;;;;;;;5.75;5.25;;;;;;;22.32;56.58;101109.75;4731519;30;20050;-90
2021/09/15 01:29:16;;;;;;;5.43;4.93;;;;;;;22.33;56.90;101108.84;4720822;30;20033;-89
2021/09/15 01:31:58;;;;;;;5.80;4.88;;;;;;;22.33;56.35;101103.59;4737853;30;20481;-89
2021/09/15 01:34:24;;;;;;;7.10;5.10;;;;;;;22.34;56.75;101107.06;4751287;30;20044;-90
2021/09/15 01:36:50;;;;;;;5.00;4.53;;;;;;;22.32;56.75;101106.25;4738090;30;20042;-90
2021/09/15 01:39:15;;;;;;;5.22;4.72;;;;;;;22.33;56.63;101108.84;4738125;30;20416;-90
2021/09/15 01:41:41;;;;;;;5.68;5.10;;;;;;;22.32;56.67;101112.38;4706221;30;20037;-90
2021/09/15 01:44:06;;;;;;;5.60;5.10;;;;;;;22.33;56.40;101110.59;4738715;30;20040;-89
2021/09/15 01:46:31;;;;;;;5.20;4.70;;;;;;;22.32;56.70;101109.75;4723710;30;20412;-90
2021/09/15 01:48:57;;;;;;;5.60;5.10;;;;;;;22.31;56.44;101102.75;4734882;30;20041;-89
2021/09/15 01:51:22;;;;;;;5.35;4.85;;;;;;;22.30;56.98;101095.81;4705439;30;20044;-91
2021/09/15 01:53:47;;;;;;;5.38;4.88;;;;;;;22.31;56.24;101097.53;4730124;30;20047;-90
2021/09/15 01:56:13;;;;;;;5.15;4.75;;;;;;;22.30;56.27;101098.44;4737548;30;20053;-91
2021/09/15 01:58:38;;;;;;;5.15;4.70;;;;;;;22.31;56.17;101094.91;4737691;30;20135;-90
2021/09/15 02:01:03;;;;;;;5.45;4.95;;;;;;;22.30;56.16;101090.56;4722630;30;20032;-91
2021/09/15 02:03:29;;;;;;;5.38;4.88;;;;;;;22.30;56.18;101089.72;4737989;30;20477;-91
2021/09/15 02:05:54;;;;;;;5.40;4.90;;;;;;;22.30;56.74;101085.31;4723216;30;20044;-90
2021/09/15 02:08:19;;;;;;;5.38;4.88;;;;;;;22.29;56.10;101077.50;4737220;30;20120;-90
2021/09/15 02:10:45;;;;;;;5.18;4.75;;;;;;;22.29;56.76;101067.84;4735023;30;20044;-91
2021/09/15 02:13:10;;;;;;;5.07;4.60;;;;;;;22.30;56.41;101073.97;4720903;30;20044;-91
2021/09/15 02:15:36;;;;;;;5.10;4.60;;;;;;;22.30;56.53;101074.84;4723131;30;20307;-91
2021/09/15 02:18:02;;;;;;;5.97;4.75;;;;;;;22.30;56.63;101077.47;4708708;30;20039;-90
2021/09/15 02:20:27;;;;;;;5.63;5.03;;;;;;;22.30;56.41;101073.97;4736020;30;20088;-90
2021/09/15 02:22:52;;;;;;;6.80;4.93;;;;;;;22.29;56.29;101080.13;4708117;30;20044;-90
2021/09/15 02:25:18;;;;;;;5.22;4.72;;;;;;;22.29;56.32;101086.22;4722914;30;20098;-90
2021/09/15 02:27:43;;;;;;;5.25;4.75;;;;;;;22.27;56.42;101080.13;4739282;30;20033;-90
2021/09/15 02:30:09;;;;;;;5.05;4.55;;;;;;;22.28;56.39;101079.25;4710009;30;20502;-90
2021/09/15 02:32:34;;;;;;;5.50;4.70;;;;;;;22.29;56.47;101083.59;4708820;30;20535;-90
2021/09/15 02:35:00;;;;;;;5.03;4.63;;;;;;;22.28;56.50;101087.13;4738826;30;20085;-90
2021/09/15 02:37:25;;;;;;;5.57;4.70;;;;;;;22.28;56.37;101095.00;4732061;30;20033;-91
2021/09/15 02:39:50;;;;;;;5.35;4.85;;;;;;;22.28;56.41;101091.50;4723279;30;20036;-90
2021/09/15 02:42:16;;;;;;;5.03;4.53;;;;;;;22.26;56.45;101088.91;4737797;30;20044;-90
2021/09/15 02:44:41;;;;;;;5.18;4.72;;;;;;;22.28;56.58;101096.75;4752504;30;20032;-88
2021/09/15 02:47:07;;;;;;;5.57;5.07;;;;;;;22.28;56.39;101088.91;4726043;30;20048;-88
2021/09/15 02:49:32;;;;;;;5.68;4.75;;;;;;;22.28;56.61;101092.38;4724514;30;20047;-90
2021/09/15 02:51:58;;;;;;;5.45;4.95;;;;;;;22.28;56.51;101088.91;4737206;30;20032;-89
2021/09/15 02:54:23;;;;;;;5.40;4.90;;;;;;;22.28;56.61;101091.50;4723176;30;20050;-90
2021/09/15 02:56:48;;;;;;;5.43;4.93;;;;;;;22.27;56.47;101085.38;4722668;30;20103;-90
2021/09/15 02:59:14;;;;;;;5.03;4.53;;;;;;;22.27;56.63;101085.38;4723332;30;20057;-91
2021/09/15 03:01:39;;;;;;;5.50;5.00;;;;;;;22.27;56.26;101082.75;4738359;30;20396;-90
2021/09/15 03:04:05;;;;;;;8.07;4.95;;;;;;;22.27;56.41;101080.13;4750120;30;20044;-90
2021/09/15 03:06:30;;;;;;;5.55;4.85;;;;;;;22.27;56.40;101077.53;4722901;30;20063;-91
2021/09/15 03:08:55;;;;;;;5.05;4.45;;;;;;;22.26;56.39;101080.19;4739571;30;20382;-83
2021/09/15 03:11:21;;;;;;;5.05;4.55;;;;;;;22.26;56.48;101067.94;4721144;30;20074;-84
2021/09/15 03:13:47;;;;;;;6.85;4.50;;;;;;;22.27;56.32;101080.13;4736923;30;20438;-85
2021/09/15 03:16:14;;;;;;;6.00;4.63;;;;;;;22.27;56.51;101071.44;4752767;30;20039;-90
2021/09/15 03:18:39;;;;;;;5.68;4.97;;;;;;;22.27;56.53;101071.44;4737270;30;20472;-90
2021/09/15 03:21:04;;;;;;;5.22;4.72;;;;;;;22.27;56.37;101068.81;4734452;30;20045;-90
2021/09/15 03:23:30;;;;;;;4.97;4.57;;;;;;;22.26;56.71;101062.69;4707999;30;20052;-90
2021/09/15 03:25:55;;;;;;;4.95;4.55;;;;;;;22.27;56.53;101055.69;4725205;30;20499;-91
2021/09/15 03:28:21;;;;;;;5.80;4.50;;;;;;;22.26;56.43;101052.22;4713701;30;20036;-90
2021/09/15 03:30:46;;;;;;;5.00;4.50;;;;;;;22.27;56.47;101061.78;4719696;30;20040;-90
2021/09/15 03:33:11;;;;;;;5.40;4.90;;;;;;;22.26;56.31;101056.59;4712023;30;20520;-90
2021/09/15 03:35:37;;;;;;;4.75;4.35;;;;;;;22.26;56.45;101054.00;4734937;30;20041;-89
2021/09/15 03:38:02;;;;;;;4.75;4.25;;;;;;;22.26;56.28;101052.22;4702374;30;20389;-91
2021/09/15 03:40:28;;;;;;;7.10;3.92;;;;;;;22.26;56.36;101056.59;4703644;30;20040;-90
2021/09/15 03:42:53;;;;;;;5.22;4.50;;;;;;;22.26;56.29;101054.00;4704155;30;20036;-89
2021/09/15 03:45:18;;;;;;;4.63;4.22;;;;;;;22.26;56.28;101048.75;4705070;30;20037;-82
2021/09/15 03:47:44;;;;;;;4.30;3.92;;;;;;;22.26;56.27;101046.97;4704658;30;20036;-90
2021/09/15 03:50:09;;;;;;;5.00;4.55;;;;;;;22.24;56.34;101038.28;4705080;30;20047;-91
2021/09/15 03:52:35;;;;;;;4.85;4.45;;;;;;;22.25;56.53;101034.75;4705038;30;20568;-90
2021/09/15 03:55:00;;;;;;;4.30;3.90;;;;;;;22.24;56.26;101037.44;4717339;30;20509;-90
2021/09/15 03:57:25;;;;;;;4.15;3.75;;;;;;;22.24;56.20;101038.28;4718986;30;20028;-90
2021/09/15 03:59:51;;;;;;;4.88;4.38;;;;;;;22.25;56.26;101033.91;4690570;30;20040;-90
2021/09/15 04:02:16;;;;;;;4.68;4.28;;;;;;;22.24;56.58;101033.03;4704937;30;20041;-90
2021/09/15 04:04:42;;;;;;;4.50;4.10;;;;;;;22.25;56.40;101041.75;4690108;30;20037;-90
2021/09/15 04:07:07;;;;;;;4.53;4.13;;;;;;;22.26;56.23;101035.63;4705009;30;20473;-90
2021/09/15 04:09:32;;;;;;;4.60;4.20;;;;;;;22.24;56.30;101040.06;4718865;30;20052;-90
2021/09/15 04:11:58;;;;;;;4.63;4.20;;;;;;;22.25;56.38;101047.84;4735548;30;20040;-91
2021/09/15 04:14:25;;;;;;;4.57;4.18;;;;;;;22.24;56.54;101056.63;4734843;30;20063;-91
2021/09/15 04:16:50;;;;;;;4.68;4.28;;;;;;;22.25;56.28;101052.25;4691041;30;20436;-90
2021/09/15 04:19:16;;;;;;;5.10;4.20;;;;;;;22.25;56.51;101055.72;4704041;30;20090;-90
2021/09/15 04:21:42;;;;;;;4.90;4.40;;;;;;;22.24;56.26;101058.41;4693719;30;20090;-91
2021/09/15 04:32:47;;;;;;;5.60;4.18;;;;;;;22.24;56.59;101061.88;4714546;30;20067;-91
2021/09/15 04:35:13;;;;;;;4.55;4.15;;;;;;;22.23;56.34;101062.75;4730114;30;20044;-91
2021/09/15 04:37:38;;;;;;;4.65;4.20;;;;;;;22.24;56.48;101059.25;4724878;30;20029;-91
2021/09/15 04:40:04;;;;;;;4.97;4.47;;;;;;;22.24;56.29;101059.25;4724872;30;20125;-91
2021/09/15 04:42:30;;;;;;;4.40;4.00;;;;;;;22.25;56.41;101060.13;4710514;30;20446;-91
2021/09/15 04:44:55;;;;;;;5.03;4.30;;;;;;;22.24;56.39;101050.53;4724598;30;20097;-90
2021/09/15 04:47:21;;;;;;;4.35;3.95;;;;;;;22.23;56.43;101057.53;4724789;30;20036;-91
2021/09/15 04:49:46;;;;;;;4.53;4.13;;;;;;;22.23;56.25;101044.41;4740634;30;20476;-89
2021/09/15 04:52:11;;;;;;;4.38;3.97;;;;;;;22.23;56.37;101038.31;4736348;30;20033;-90
2021/09/15 04:54:37;;;;;;;4.47;4.07;;;;;;;22.23;56.50;101033.94;4721777;30;20380;-91
2021/09/15 04:57:02;;;;;;;4.30;3.88;;;;;;;22.23;56.14;101036.56;4724790;30;20024;-91
2021/09/15 04:59:28;;;;;;;4.32;3.92;;;;;;;22.23;56.16;101047.03;4728448;30;20036;-84
2021/09/15 05:01:53;;;;;;;4.65;4.25;;;;;;;22.21;56.21;101048.84;4723713;30;20036;-84
2021/09/15 05:04:18;;;;;;;4.82;3.97;;;;;;;22.22;56.23;101050.56;4739239;30;20044;-84
2021/09/15 05:06:44;;;;;;;6.05;3.83;;;;;;;22.23;56.29;101054.03;4709278;30;20040;-85
2021/09/15 05:09:09;;;;;;;4.20;3.80;;;;;;;22.23;56.49;101049.66;4724259;30;20517;-85
2021/09/15 05:11:35;;;;;;;4.45;4.05;;;;;;;22.21;56.63;101040.97;4723537;30;20126;-84
2021/09/15 05:14:00;;;;;;;4.05;3.65;;;;;;;22.23;56.58;101033.94;4724628;30;20533;-85
2021/09/15 05:16:26;;;;;;;4.03;3.63;;;;;;;22.22;56.46;101039.19;4723838;30;20035;-82
2021/09/15 05:18:51;;;;;;;4.55;4.13;;;;;;;22.21;56.34;101035.72;4724513;30;20044;-81
2021/09/15 05:21:16;;;;;;;4.40;4.00;;;;;;;22.22;56.23;101047.06;4709204;30;20130;-82
2021/09/15 05:23:42;;;;;;;5.18;4.15;;;;;;;22.21;56.23;101045.31;4738809;30;20128;-83
2021/09/15 05:26:07;;;;;;;4.40;3.95;;;;;;;22.21;56.58;101045.31;4723381;30;20031;-84
2021/09/15 05:28:32;;;;;;;5.00;4.38;;;;;;;22.19;56.35;101046.25;4754254;30;20035;-84
2021/09/15 05:30:58;;;;;;;5.18;4.05;;;;;;;22.18;56.46;101044.50;4734736;30;20037;-82
2021/09/15 05:33:23;;;;;;;11.88;5.43;;;;;;;22.18;56.44;101044.50;4708370;30;20051;-87
2021/09/15 05:35:48;;;;;;;21.15;7.72;;;;;;;22.17;56.63;101044.56;4741738;30;20037;-88
2021/09/15 05:38:14;;;;;;;22.80;9.20;;;;;;;22.16;56.88;101053.31;4713690;30;20539;-84
2021/09/15 05:40:39;;;;;;;20.27;8.40;;;;;;;22.16;56.85;101061.19;4738655;30;20118;-86
2021/09/15 05:43:05;;;;;;;18.17;7.40;;;;;;;22.16;56.59;101058.56;4737932;30;20036;-80
2021/09/15 05:45:31;;;;;;;14.60;7.85;;;;;;;22.13;57.16;101063.88;4735250;30;20047;-78
2021/09/15 05:47:56;;;;;;;19.05;8.70;;;;;;;22.09;57.30;101059.63;4732819;30;20099;-86
2021/09/15 05:50:21;;;;;;;17.05;9.30;;;;;;;22.07;57.53;101056.16;4720877;30;20401;-86
2021/09/15 05:52:47;;;;;;;11.98;8.27;;;;;;;22.06;57.42;101054.44;4720766;30;20048;-86
2021/09/15 05:55:12;;;;;;;17.58;10.45;;;;;;;22.08;57.81;101057.88;4724077;30;20037;-85
2021/09/15 05:57:38;;;;;;;14.27;9.65;;;;;;;22.08;57.47;101063.13;4715835;30;20370;-86
2021/09/15 06:00:04;;;;;;;15.27;10.05;;;;;;;22.08;57.60;101063.13;4720837;30;20117;-86
2021/09/15 06:02:31;;;;;;;18.90;11.75;;;;;;;22.07;57.84;101061.41;4720669;30;20040;-86
2021/09/15 06:04:56;;;;;;;13.63;10.98;;;;;;;22.08;57.20;101068.34;4720902;30;20400;-87
2021/09/15 06:07:24;;;;;;;15.85;11.88;;;;;;;22.10;57.77;101075.31;4740938;30;20044;-86
2021/09/15 06:09:49;;;;;;;16.55;12.40;;;;;;;22.09;57.81;101067.47;4751276;30;20036;-86
2021/09/15 06:12:14;;;;;;;16.25;13.02;;;;;;;22.07;57.38;101066.66;4751040;30;20032;-87
2021/09/15 06:14:40;;;;;;;21.95;16.13;;;;;;;22.07;58.57;101071.91;4750874;30;20492;-86
2021/09/15 06:17:06;;;;;;;18.85;13.13;;;;;;;22.06;57.81;101081.53;4751536;30;20119;-86
2021/09/15 06:19:32;;;;;;;15.13;12.80;;;;;;;22.05;57.96;101074.53;4723065;30;20433;-86
2021/09/15 06:21:57;;;;;;;17.98;14.05;;;;;;;22.04;58.14;101078.06;4752323;30;20123;-86
2021/09/15 06:24:23;;;;;;;16.27;12.50;;;;;;;22.07;58.09;101093.72;4752698;30;20046;-87
2021/09/15 06:26:51;;;;;;;15.85;12.25;;;;;;;22.07;57.96;101083.22;4752713;30;20084;-87
2021/09/15 06:29:16;;;;;;;15.25;12.40;;;;;;;22.10;57.63;101092.78;4723772;30;20036;-87
2021/09/15 06:31:42;;;;;;;15.43;12.07;;;;;;;22.18;57.51;101090.84;4738144;30;20448;-86
2021/09/15 06:34:08;;;;;;;16.52;13.98;;;;;;;22.38;57.22;101086.00;4737045;30;20452;-86
2021/09/15 06:36:33;;;;;;;20.23;15.10;;;;;;;22.32;57.66;101094.00;4734902;30;20057;-87
2021/09/15 06:38:59;;;;;;;16.75;14.73;;;;;;;22.36;57.83;101089.53;4720339;30;20043;-86
2021/09/15 06:41:24;;;;;;;16.73;15.00;;;;;;;22.24;58.40;101090.72;4720325;30;20033;-87
2021/09/15 06:43:50;;;;;;;16.70;13.85;;;;;;;22.23;58.43;101088.13;4734420;30;20032;-87
2021/09/15 06:46:15;;;;;;;17.20;13.57;;;;;;;22.27;57.99;101090.63;4739027;30;20016;-87
2021/09/15 06:48:41;;;;;;;15.00;13.40;;;;;;;22.30;57.91;101098.44;4726758;30;20099;-87
2021/09/15 06:51:06;;;;;;;18.65;15.15;;;;;;;22.32;58.22;101093.13;4712277;30;20618;-87
2021/09/15 06:53:31;;;;;;;16.70;13.68;;;;;;;22.36;57.78;101092.16;4735448;30;20139;-85
2021/09/15 06:55:57;;;;;;;14.43;13.02;;;;;;;22.42;57.92;101088.53;4720203;30;20047;-87
2021/09/15 06:58:22;;;;;;;17.25;14.52;;;;;;;22.93;56.76;101090.63;4734850;30;20037;-87
2021/09/15 07:00:48;;;;;;;16.52;14.40;;;;;;;23.06;56.12;101088.56;4719869;30;20052;-84
2021/09/15 07:03:13;;;;;;;15.18;13.63;;;;;;;22.67;57.27;101089.59;4705518;30;20060;-85
2021/09/15 07:05:39;;;;;;;15.20;13.60;;;;;;;22.47;58.03;101098.00;4734346;30;20044;-85
2021/09/15 07:08:05;;;;;;;14.18;12.68;;;;;;;22.34;58.69;101102.69;4719660;30;20048;-84
2021/09/15 07:10:33;;;;;;;14.23;11.65;;;;;;;22.28;58.63;101112.47;4734005;30;20043;-84
2021/09/15 07:13:42;;;;;;;17.75;13.07;;;;;;;22.22;59.11;101113.47;4735037;30;20039;-85
2021/09/15 07:16:11;;;;;;;12.73;10.88;;;;;;;22.21;58.91;101108.25;4738939;30;20033;-85
2021/09/15 07:18:39;;;;;;;11.88;9.48;;;;;;;22.19;58.69;101108.31;4722841;30;20036;-86
2021/09/15 07:24:19;;;;;;;12.07;9.27;;;;;;;22.17;58.80;101115.34;4739732;30;20508;-85
2021/09/15 07:27:09;;;;;;;9.35;7.60;;;;;;;22.13;58.74;101127.66;4717839;30;20045;-83
2021/09/15 07:29:34;;;;;;;10.55;7.30;;;;;;;22.14;58.62;101118.00;4722122;30;20070;-85
2021/09/15 07:33:00;;;;;;;10.35;8.00;;;;;;;22.11;58.28;101110.25;4721823;30;20036;-86
2021/09/15 07:35:50;;;;;;;8.73;7.15;;;;;;;22.11;58.47;101123.34;4758276;24;20060;-84
2021/09/15 07:38:18;;;;;;;10.40;7.28;;;;;;;22.09;58.36;101114.66;4752405;30;20150;-84
2021/09/15 07:41:11;;;;;;;9.13;6.65;;;;;;;22.10;58.06;101119.88;4762467;30;20043;-86
2021/09/15 07:43:40;;;;;;;5.80;5.15;;;;;;;22.06;57.97;101106.84;4752024;30;20035;-86
2021/09/15 07:46:05;;;;;;;6.72;5.10;;;;;;;22.07;57.90;101119.91;4764608;30;20032;-86
2021/09/15 07:48:31;;;;;;;6.32;5.45;;;;;;;22.06;57.96;101114.72;4766916;30;20035;-87
2021/09/15 07:50:56;;;;;;;4.57;4.10;;;;;;;22.06;57.75;101112.09;4739031;30;20043;-87
2021/09/15 07:53:30;;;;;;;5.40;4.40;;;;;;;22.08;57.73;101120.78;4752697;29;20503;-87
2021/09/15 07:55:55;;;;;;;5.15;3.95;;;;;;;22.08;57.67;101118.16;4776653;30;20035;-85
2021/09/15 07:58:30;;;;;;;6.38;4.47;;;;;;;22.06;57.37;101114.72;4791952;30;20056;-88
2021/09/15 08:00:55;;;;;;;4.65;3.88;;;;;;;22.10;57.24;101114.63;4792415;30;20039;-86
2021/09/15 08:03:21;;;;;;;4.53;4.00;;;;;;;22.10;57.44;101118.97;4761009;30;20035;-86
2021/09/15 08:05:46;;;;;;;5.65;4.00;;;;;;;22.04;56.85;101120.00;4760947;30;20035;-85
2021/09/15 08:08:15;;;;;;;4.95;3.78;;;;;;;22.00;56.67;101114.88;4776633;30;20168;-85
2021/09/15 08:10:44;;;;;;;6.70;3.70;;;;;;;21.98;56.87;101107.91;4776155;30;20031;-84
2021/09/15 08:13:12;;;;;;;6.10;4.35;;;;;;;21.94;56.50;101114.09;4776994;30;20047;-83
2021/09/15 08:15:40;;;;;;;5.22;3.50;;;;;;;21.94;57.08;101108.00;4744706;30;20040;-86
2021/09/15 08:18:05;;;;;;;5.72;3.60;;;;;;;21.95;56.73;101107.97;4755347;30;20115;-85
2021/09/15 08:20:34;;;;;;;5.72;3.65;;;;;;;21.95;56.55;101107.97;4740978;30;20540;-85
2021/09/15 08:22:59;;;;;;;7.25;3.30;;;;;;;21.95;56.56;101100.13;4729511;30;20118;-84
2021/09/15 08:25:25;;;;;;;5.55;3.40;;;;;;;21.91;56.31;101098.47;4762617;30;20420;-86
2021/09/15 08:27:50;;;;;;;7.43;3.83;;;;;;;21.87;56.14;101103.81;4757950;30;20048;-85
2021/09/15 08:30:16;;;;;;;6.68;3.88;;;;;;;21.77;56.18;101097.91;4743429;30;20031;-85
2021/09/15 08:32:42;;;;;;;6.13;3.83;;;;;;;21.83;56.32;101095.16;4757707;30;20126;-85
2021/09/15 08:35:08;;;;;;;7.03;3.60;;;;;;;21.85;55.98;101097.75;4757726;30;20055;-85
2021/09/15 08:37:35;;;;;;;4.68;3.28;;;;;;;21.88;56.28;101103.75;4757546;30;20126;-85
2021/09/15 08:40:01;;;;;;;6.07;3.58;;;;;;;21.86;55.80;101097.72;4757398;30;20398;-84
2021/09/15 08:42:26;;;;;;;7.78;4.10;;;;;;;21.85;55.56;101098.59;4757791;30;20100;-85
2021/09/15 08:44:52;;;;;;;10.95;3.97;;;;;;;21.88;56.02;101095.91;4762258;30;20071;-85
2021/09/15 08:47:21;;;;;;;12.20;4.53;;;;;;;21.88;55.87;101093.28;4773841;30;20032;-85
2021/09/15 08:49:47;;;;;;;7.90;3.63;;;;;;;21.93;56.00;101099.28;4757596;30;20027;-85
2021/09/15 08:52:12;;;;;;;4.93;3.55;;;;;;;21.92;55.89;101100.19;4764238;30;20032;-83
2021/09/15 08:54:38;;;;;;;7.93;4.10;;;;;;;21.92;55.54;101097.56;4767435;30;20067;-83
2021/09/15 08:57:05;;;;;;;6.20;3.55;;;;;;;21.87;55.34;101102.06;4784197;30;20024;-84
2021/09/15 08:59:31;;;;;;;7.05;3.42;;;;;;;21.88;55.76;101098.53;4766081;30;20043;-84
2021/09/15 09:02:08;;;;;;;6.80;3.05;;;;;;;21.91;55.47;101101.09;4762014;30;20523;-84
2021/09/15 09:04:52;;;;;;;6.72;3.28;;;;;;;21.81;55.57;101104.81;4747921;30;20131;-84
2021/09/15 09:07:17;;;;;;;9.27;3.50;;;;;;;21.81;55.33;101107.44;4786431;30;20073;-84
2021/09/15 09:09:51;;;;;;;6.45;2.90;;;;;;;21.92;55.50;101108.03;4754519;30;20031;-84
2021/09/15 09:12:18;;;;;;;3.70;2.30;;;;;;;21.95;55.60;101105.38;4751602;30;20036;-85
2021/09/15 09:14:47;;;;;;;6.60;3.47;;;;;;;21.92;54.92;101110.66;4758704;30;20027;-84
2021/09/15 09:17:27;;;;;;;4.68;2.90;;;;;;;21.93;55.21;101114.16;4760031;30;20361;-84
2021/09/15 09:20:27;;;;;;;7.50;3.17;;;;;;;21.95;55.37;101109.75;4770657;30;20095;-83
2021/09/15 09:23:04;;;;;;;6.03;2.90;;;;;;;21.95;55.33;101115.84;4767858;30;20028;-83
2021/09/15 09:25:49;;;;;;;5.38;3.17;;;;;;;22.00;55.35;101122.75;4763626;30;20063;-84
2021/09/15 09:28:30;;;;;;;4.95;2.90;;;;;;;22.05;55.09;101119.09;4757698;30;20057;-84
2021/09/15 09:31:09;;;;;;;7.78;2.72;;;;;;;22.08;55.01;101120.78;4776432;30;20032;-84
2021/09/15 09:33:35;;;;;;;6.22;2.75;;;;;;;22.10;54.62;101122.50;4783854;30;20032;-83
2021/09/15 09:36:07;;;;;;;11.70;2.85;;;;;;;22.12;54.75;101122.44;4765725;30;20117;-82
2021/09/15 09:38:39;;;;;;;6.03;2.63;;;;;;;22.14;54.17;101125.88;4776422;30;20028;-83
2021/09/15 09:41:04;;;;;;;6.28;2.40;;;;;;;22.13;54.53;101119.78;4756845;30;20168;-85
2021/09/15 09:43:35;;;;;;;5.60;2.40;;;;;;;22.13;54.61;101125.03;4756915;30;20089;-83
2021/09/15 09:46:02;;;;;;;5.95;2.55;;;;;;;22.13;54.38;101135.50;4756517;30;20058;-84
2021/09/15 09:48:29;;;;;;;5.32;2.40;;;;;;;22.14;54.80;101124.09;4756714;30;20396;-84
2021/09/15 09:50:54;;;;;;;7.57;2.70;;;;;;;22.14;54.68;101136.34;4742318;30;20031;-79
2021/09/15 09:53:20;;;;;;;5.32;2.70;;;;;;;22.16;54.75;101130.19;4756348;30;20097;-87
2021/09/15 09:55:51;;;;;;;4.57;2.30;;;;;;;22.20;54.71;101136.22;4741712;30;20085;-84
2021/09/15 09:58:22;;;;;;;4.85;2.40;;;;;;;22.17;54.78;101137.16;4741660;30;20035;-83
2021/09/15 10:00:48;;;;;;;7.47;2.47;;;;;;;22.16;54.81;101131.94;4755925;30;20024;-84
2021/09/15 10:03:14;;;;;;;6.72;2.45;;;;;;;22.14;54.86;101129.34;4726257;30;20390;-83
2021/09/15 10:05:40;;;;;;;4.53;2.25;;;;;;;22.18;54.77;101130.16;4740928;30;20093;-85
2021/09/15 10:08:07;;;;;;;3.53;2.30;;;;;;;22.21;54.66;101143.19;4746265;30;20494;-83
2021/09/15 10:10:32;;;;;;;6.35;2.58;;;;;;;22.18;54.73;101140.63;4771548;30;20036;-86
2021/09/15 10:12:58;;;;;;;4.00;2.13;;;;;;;22.22;54.55;101144.06;4741272;30;20503;-84
2021/09/15 10:15:24;;;;;;;7.75;2.25;;;;;;;22.24;54.67;101145.78;4723620;30;20044;-83
2021/09/15 10:17:55;;;;;;;5.68;2.45;;;;;;;22.22;54.80;101150.19;4740328;30;20032;-82
2021/09/15 10:20:29;;;;;;;4.47;2.20;;;;;;;22.17;55.02;101145.03;4760120;30;20028;-84
2021/09/15 10:22:56;;;;;;;6.90;2.13;;;;;;;22.18;54.76;101151.13;4763783;30;20054;-84
2021/09/15 10:25:36;;;;;;;5.60;2.30;;;;;;;22.14;55.21;101158.19;4747078;30;20386;-86
2021/09/15 10:28:09;;;;;;;5.07;2.28;;;;;;;22.13;55.32;101156.47;4754488;30;20036;-86
2021/09/15 10:30:49;;;;;;;6.53;2.42;;;;;;;22.12;55.36;101159.13;4739475;30;20037;-87
2021/09/15 10:33:36;;;;;;;4.85;2.20;;;;;;;22.12;55.13;101157.38;4748188;30;20513;-85
2021/09/15 10:36:23;;;;;;;4.35;2.22;;;;;;;22.11;55.20;101165.28;4755676;30;20139;-85
2021/09/15 10:38:51;;;;;;;4.15;2.10;;;;;;;22.13;55.22;101166.97;4755266;30;20028;-86
2021/09/15 10:41:45;;;;;;;4.40;2.03;;;;;;;22.17;55.07;101160.75;4755289;30;20093;-86
2021/09/15 10:44:15;;;;;;;6.05;2.42;;;;;;;22.21;55.18;101165.91;4740743;30;20039;-85
2021/09/15 10:46:44;;;;;;;4.57;2.03;;;;;;;22.25;55.02;101159.72;4755696;30;20043;-85
2021/09/15 10:49:25;;;;;;;5.70;2.22;;;;;;;22.28;54.70;101154.44;4755240;30;20035;-84
2021/09/15 10:52:09;;;;;;;6.68;2.10;;;;;;;22.33;54.58;101160.41;4755169;30;20122;-85
2021/09/15 10:54:42;;;;;;;6.13;1.95;;;;;;;22.34;54.64;101152.53;4754990;30;20046;-84
2021/09/15 10:57:15;;;;;;;4.97;2.40;;;;;;;22.33;54.37;101152.56;4737990;30;20119;-83
2021/09/15 10:59:48;;;;;;;3.63;2.05;;;;;;;22.31;54.17;101151.72;4753528;30;20339;-84
2021/09/15 11:02:23;;;;;;;4.70;2.13;;;;;;;22.28;54.27;101159.69;4740551;30;20027;-81
2021/09/15 11:04:48;;;;;;;4.05;2.38;;;;;;;22.26;54.20;101158.84;4754948;30;20400;-85
2021/09/15 11:07:48;;;;;;;3.28;2.13;;;;;;;22.25;54.56;101164.97;4725836;30;20055;-85
2021/09/15 11:10:32;;;;;;;5.75;2.25;;;;;;;22.23;54.09;101157.13;4755576;30;20038;-85
2021/09/15 11:13:07;;;;;;;4.00;2.22;;;;;;;22.25;54.08;101157.97;4756266;30;20088;-85
2021/09/15 11:15:56;;;;;;;6.32;2.47;;;;;;;22.27;54.21;101161.41;4772271;30;20130;-86
2021/09/15 11:18:26;;;;;;;4.45;2.63;;;;;;;22.27;54.09;101174.53;4758819;30;20031;-90
2021/09/15 11:21:10;;;;;;;4.53;2.55;;;;;;;22.23;54.34;101161.53;4766003;30;20035;-89
2021/09/15 11:23:36;;;;;;;6.70;2.88;;;;;;;22.23;54.06;101167.63;4770589;30;20027;-90
2021/09/15 11:26:03;;;;;;;7.32;2.80;;;;;;;22.27;53.88;101168.41;4749119;30;20126;-90
2021/09/15 11:28:28;;;;;;;3.88;2.40;;;;;;;22.28;53.79;101164.91;4763536;30;20032;-90
2021/09/15 11:31:00;;;;;;;3.83;2.70;;;;;;;22.30;53.93;101163.97;4734761;30;20109;-90
2021/09/15 11:33:32;;;;;;;4.57;2.20;;;;;;;22.33;53.97;101165.66;4767280;30;20036;-85
2021/09/15 11:36:09;;;;;;;5.18;2.45;;;;;;;22.35;54.55;101172.59;4772133;30;20062;-85
2021/09/15 11:38:39;;;;;;;8.55;3.08;;;;;;;22.34;54.70;101181.38;4765041;30;20059;-86